Site contains unofficial IBTrACS data. Visit the IBTrACS Website to access archived data.

1921 NOT_NAMED (1921312N08126)


IBTrACS version v04r00. Visit IBTrACS website for data access.
Please direct all questions to the IBTrACS Q and A forum

Storm track - Intensity - Wind Radii - Intensity Data - Source Data - All data

Summary Information

Storm ID 1921312N08126
Start Nov 7 22Z
End Nov 10 22Z
ATCF IDs
Track status Best track data.

Storm track plot

Map of storm track

Intensity plots

No Intensity information for this storm


Radial wind information

No radial wind information for this storm


Position and Intensity Table

BASIN ISO_TIME_________ NATURE LAT LON
degrees north degrees east
WP 1921-11-07 22:00:00 NR 8.30 126.00
WP 1921-11-08 00:00:00 NR 8.30 125.61
WP 03:00:00 NR 8.30 125.01
WP 06:00:00 NR 8.30 124.37
WP 09:00:00 NR 8.30 123.66
WP 10:00:00 NR 8.30 123.40
WP 12:00:00 NR 8.30 122.86
WP 15:00:00 NR 8.31 122.01
WP 18:00:00 NR 8.31 121.17
WP 21:00:00 NR 8.30 120.42
WP 22:00:00 NR 8.30 120.20
WP 1921-11-09 00:00:00 NR 8.29 119.86
WP 03:00:00 NR 8.26 119.44
WP 06:00:00 NR 8.23 119.09
WP 09:00:00 NR 8.21 118.73
WP 10:00:00 NR 8.20 118.60
WP 12:00:00 NR 8.19 118.27
WP 15:00:00 NR 8.19 117.75
WP 18:00:00 NR 8.19 117.20
WP 21:00:00 NR 8.20 116.67
WP 22:00:00 NR 8.20 116.50
WP 1921-11-10 00:00:00 NR 8.20 116.20
WP 03:00:00 NR 8.21 115.76
WP 06:00:00 NR 8.21 115.32
WP 09:00:00 NR 8.20 114.86
WP 10:00:00 NR 8.20 114.70
WP 12:00:00 NR 8.19 114.36
WP 15:00:00 NR 8.17 113.80
WP 18:00:00 NR 8.14 113.21
WP 21:00:00 NR 8.11 112.60
WP 22:00:00 NR 8.10 112.40

Source Information

Agency Information
USA
TOKYO
CMA
HKO
NEWDELHI
REUNION
BOM
NADI
WELLINGTON
DS824
TD9636 cons_worldwide_trop_cyclone_18710101-19891231-003:Line=6515
TD9635
NEUMANN
MLC

All available IBTrACS Data

SEASON BASIN SUBBASIN ISO_TIME_________ NATURE LAT LON DIST2LAND LANDFALL IFLAG USA SSHS TD9636 LAT TD9636 LON TD9636 STAGE STORM SPEED STORM DIR
Year degrees north degrees east km km 1 degrees north degrees east kts degrees
1921 WP MM 1921-11-07 22:00:00 NR 8.30 126.00 0 0 __________O___ -1 8.30 126.00 2 12 270
1921 WP MM 1921-11-08 00:00:00 NR 8.30 125.61 0 0 __________P___ -1 8.30 125.61 2 12 270
1921 WP MM 03:00:00 NR 8.30 125.01 0 0 __________P___ -1 8.30 125.01 2 12 270
1921 WP MM 06:00:00 NR 8.30 124.37 0 0 __________P___ -1 8.30 124.37 2 13 270
1921 WP MM 09:00:00 NR 8.30 123.66 0 0 __________P___ -1 8.30 123.66 2 14 270
1921 WP MM 10:00:00 NR 8.30 123.40 0 0 __________O___ -1 8.30 123.40 2 16 270
1921 WP MM 12:00:00 NR 8.30 122.86 0 11 __________P___ -1 8.30 122.86 2 17 270
1921 WP MM 15:00:00 NR 8.31 122.01 40 40 __________P___ -1 8.31 122.01 2 17 270
1921 WP MM 18:00:00 NR 8.31 121.17 115 125 __________P___ -1 8.31 121.17 2 16 270
1921 WP MM 21:00:00 NR 8.30 120.42 199 199 __________P___ -1 8.30 120.42 2 14 269
1921 WP MM 22:00:00 NR 8.30 120.20 219 196 __________O___ -1 8.30 120.20 2 11 268
1921 WP MM 1921-11-09 00:00:00 NR 8.29 119.86 196 156 __________P___ -1 8.29 119.86 2 9 267
1921 WP MM 03:00:00 NR 8.26 119.44 156 142 __________P___ -1 8.26 119.44 2 8 266
1921 WP MM 06:00:00 NR 8.23 119.09 142 109 __________P___ -1 8.23 119.09 2 7 266
1921 WP MM 09:00:00 NR 8.21 118.73 109 102 __________P___ -1 8.21 118.73 2 7 266
1921 WP MM 10:00:00 NR 8.20 118.60 102 85 __________O___ -1 8.20 118.60 2 9 269
1921 WP MM 12:00:00 NR 8.19 118.27 85 40 __________P___ -1 8.19 118.27 2 10 269
1921 WP MM 15:00:00 NR 8.19 117.75 40 11 __________P___ -1 8.19 117.75 2 11 270
1921 WP MM 18:00:00 NR 8.19 117.20 11 11 __________P___ -1 8.19 117.20 2 11 270
1921 WP MM 21:00:00 NR 8.20 116.67 56 67 __________P___ -1 8.20 116.67 2 10 270
1921 WP MM 22:00:00 NR 8.20 116.50 77 77 __________O___ -1 8.20 116.50 2 9 270
1921 WP MM 1921-11-10 00:00:00 NR 8.20 116.20 110 110 __________P___ -1 8.20 116.20 2 9 270
1921 WP MM 03:00:00 NR 8.21 115.76 154 165 __________P___ -1 8.21 115.76 2 9 270
1921 WP MM 06:00:00 NR 8.21 115.32 209 209 __________P___ -1 8.21 115.32 2 9 270
1921 WP MM 09:00:00 NR 8.20 114.86 246 255 __________P___ -1 8.20 114.86 2 9 269
1921 WP MM 10:00:00 NR 8.20 114.70 264 264 __________O___ -1 8.20 114.70 2 10 269
1921 WP MM 12:00:00 NR 8.19 114.36 292 302 __________P___ -1 8.19 114.36 2 11 268
1921 WP MM 15:00:00 NR 8.17 113.80 346 346 __________P___ -1 8.17 113.80 2 11 268
1921 WP MM 18:00:00 NR 8.14 113.21 386 386 __________P___ -1 8.14 113.21 2 12 267
1921 WP MM 21:00:00 NR 8.11 112.60 421 421 __________P___ -1 8.11 112.60 2 12 267
1921 WP MM 22:00:00 NR 8.10 112.40 430 __________O___ -1 8.10 112.40 2 12 267